sensor_id;sensor_type;location;lat;lon;timestamp;pressure;altitude;pressure_sealevel;temperature
68446;BMP280;35789;48.414;12.768;2023-02-01T00:00:01;97480.0;;;
68446;BMP280;35789;48.414;12.768;2023-02-01T00:05:00;97460.0;;;
68446;BMP280;35789;48.414;12.768;2023-02-01T00:10:01;97460.0;;;
68446;BMP280;35789;48.414;12.768;2023-02-01T00:15:01;97450.0;;;
68446;BMP280;35789;48.414;12.768;2023-02-01T00:20:00;97470.0;;;
68446;BMP280;35789;48.414;12.768;2023-02-01T00:25:01;97470.0;;;
68446;BMP280;35789;48.414;12.768;2023-02-01T00:30:00;97460.0;;;
68446;BMP280;35789;48.414;12.768;2023-02-01T00:35:00;97440.0;;;
68446;BMP280;35789;48.414;12.768;2023-02-01T00:40:00;97440.0;;;
68446;BMP280;35789;48.414;12.768;2023-02-01T00:45:00;97410.0;;;
68446;BMP280;35789;48.414;12.768;2023-02-01T00:50:00;97410.0;;;
68446;BMP280;35789;48.414;12.768;2023-02-01T00:55:01;97420.0;;;
68446;BMP280;35789;48.414;12.768;2023-02-01T01:00:02;97440.0;;;
68446;BMP280;35789;48.414;12.768;2023-02-01T01:05:00;97440.0;;;
68446;BMP280;35789;48.414;12.768;2023-02-01T01:10:00;97420.0;;;
68446;BMP280;35789;48.414;12.768;2023-02-01T01:15:00;97420.0;;;
68446;BMP280;35789;48.414;12.768;2023-02-01T01:20:00;97420.0;;;
68446;BMP280;35789;48.414;12.768;2023-02-01T01:25:00;97410.0;;;
68446;BMP280;35789;48.414;12.768;2023-02-01T01:30:00;97400.0;;;
68446;BMP280;35789;48.414;12.768;2023-02-01T01:35:00;97400.0;;;
68446;BMP280;35789;48.414;12.768;2023-02-01T01:40:01;97400.0;;;
68446;BMP280;35789;48.414;12.768;2023-02-01T01:45:04;97400.0;;;
68446;BMP280;35789;48.414;12.768;2023-02-01T01:50:01;97390.0;;;
68446;BMP280;35789;48.414;12.768;2023-02-01T01:55:00;97390.0;;;
68446;BMP280;35789;48.414;12.768;2023-02-01T02:00:09;97390.0;;;
68446;BMP280;35789;48.414;12.768;2023-02-01T02:05:00;97380.0;;;
68446;BMP280;35789;48.414;12.768;2023-02-01T02:10:03;97380.0;;;
68446;BMP280;35789;48.414;12.768;2023-02-01T02:15:00;97370.0;;;
68446;BMP280;35789;48.414;12.768;2023-02-01T02:25:17;97380.0;;;
68446;BMP280;35789;48.414;12.768;2023-02-01T02:35:07;97370.0;;;
68446;BMP280;35789;48.414;12.768;2023-02-01T02:40:13;97370.0;;;
68446;BMP280;35789;48.414;12.768;2023-02-01T02:45:07;97370.0;;;
68446;BMP280;35789;48.414;12.768;2023-02-01T02:50:16;97360.0;;;
68446;BMP280;35789;48.414;12.768;2023-02-01T02:55:05;97350.0;;;
68446;BMP280;35789;48.414;12.768;2023-02-01T03:00:05;97360.0;;;
68446;BMP280;35789;48.414;12.768;2023-02-01T03:05:00;97360.0;;;
68446;BMP280;35789;48.414;12.768;2023-02-01T03:10:05;97370.0;;;
68446;BMP280;35789;48.414;12.768;2023-02-01T03:15:10;97360.0;;;
68446;BMP280;35789;48.414;12.768;2023-02-01T03:20:04;97360.0;;;
68446;BMP280;35789;48.414;12.768;2023-02-01T03:25:05;97350.0;;;
68446;BMP280;35789;48.414;12.768;2023-02-01T03:30:09;97350.0;;;
68446;BMP280;35789;48.414;12.768;2023-02-01T03:35:01;97360.0;;;
68446;BMP280;35789;48.414;12.768;2023-02-01T03:40:07;97360.0;;;
68446;BMP280;35789;48.414;12.768;2023-02-01T03:45:08;97350.0;;;
68446;BMP280;35789;48.414;12.768;2023-02-01T03:50:04;97350.0;;;
68446;BMP280;35789;48.414;12.768;2023-02-01T03:55:01;97340.0;;;
68446;BMP280;35789;48.414;12.768;2023-02-01T04:00:08;97340.0;;;
68446;BMP280;35789;48.414;12.768;2023-02-01T04:05:00;97350.0;;;
68446;BMP280;35789;48.414;12.768;2023-02-01T04:10:01;97350.0;;;
68446;BMP280;35789;48.414;12.768;2023-02-01T04:15:00;97340.0;;;
68446;BMP280;35789;48.414;12.768;2023-02-01T04:20:00;97330.0;;;
68446;BMP280;35789;48.414;12.768;2023-02-01T04:25:00;97330.0;;;
68446;BMP280;35789;48.414;12.768;2023-02-01T04:30:00;97320.0;;;
68446;BMP280;35789;48.414;12.768;2023-02-01T04:35:00;97320.0;;;
68446;BMP280;35789;48.414;12.768;2023-02-01T04:40:00;97330.0;;;
68446;BMP280;35789;48.414;12.768;2023-02-01T04:45:00;97330.0;;;
68446;BMP280;35789;48.414;12.768;2023-02-01T04:50:00;97330.0;;;
68446;BMP280;35789;48.414;12.768;2023-02-01T04:55:00;97320.0;;;
68446;BMP280;35789;48.414;12.768;2023-02-01T05:00:00;97310.0;;;
68446;BMP280;35789;48.414;12.768;2023-02-01T05:05:01;97320.0;;;
68446;BMP280;35789;48.414;12.768;2023-02-01T05:10:00;97300.0;;;
68446;BMP280;35789;48.414;12.768;2023-02-01T05:15:00;97310.0;;;
68446;BMP280;35789;48.414;12.768;2023-02-01T05:20:00;97310.0;;;
68446;BMP280;35789;48.414;12.768;2023-02-01T05:25:00;97300.0;;;
68446;BMP280;35789;48.414;12.768;2023-02-01T05:30:00;97310.0;;;
68446;BMP280;35789;48.414;12.768;2023-02-01T05:35:01;97320.0;;;
68446;BMP280;35789;48.414;12.768;2023-02-01T05:40:00;97310.0;;;
68446;BMP280;35789;48.414;12.768;2023-02-01T05:45:00;97310.0;;;
68446;BMP280;35789;48.414;12.768;2023-02-01T05:50:00;97300.0;;;
68446;BMP280;35789;48.414;12.768;2023-02-01T05:55:00;97300.0;;;
68446;BMP280;35789;48.414;12.768;2023-02-01T06:00:01;97290.0;;;
68446;BMP280;35789;48.414;12.768;2023-02-01T06:05:00;97280.0;;;
68446;BMP280;35789;48.414;12.768;2023-02-01T06:10:00;97260.0;;;
68446;BMP280;35789;48.414;12.768;2023-02-01T06:15:01;97240.0;;;
68446;BMP280;35789;48.414;12.768;2023-02-01T06:20:00;97260.0;;;
68446;BMP280;35789;48.414;12.768;2023-02-01T06:25:00;97280.0;;;
68446;BMP280;35789;48.414;12.768;2023-02-01T06:30:01;97270.0;;;
68446;BMP280;35789;48.414;12.768;2023-02-01T06:35:00;97270.0;;;
68446;BMP280;35789;48.414;12.768;2023-02-01T06:40:00;97260.0;;;
68446;BMP280;35789;48.414;12.768;2023-02-01T06:45:00;97250.0;;;
68446;BMP280;35789;48.414;12.768;2023-02-01T06:50:00;97250.0;;;
68446;BMP280;35789;48.414;12.768;2023-02-01T06:55:00;97250.0;;;
68446;BMP280;35789;48.414;12.768;2023-02-01T07:00:01;97250.0;;;
68446;BMP280;35789;48.414;12.768;2023-02-01T07:05:00;97260.0;;;
68446;BMP280;35789;48.414;12.768;2023-02-01T07:10:00;97270.0;;;
68446;BMP280;35789;48.414;12.768;2023-02-01T07:15:00;97270.0;;;
68446;BMP280;35789;48.414;12.768;2023-02-01T07:20:01;97260.0;;;
68446;BMP280;35789;48.414;12.768;2023-02-01T07:25:00;97250.0;;;
68446;BMP280;35789;48.414;12.768;2023-02-01T07:30:01;97250.0;;;
68446;BMP280;35789;48.414;12.768;2023-02-01T07:35:00;97250.0;;;
68446;BMP280;35789;48.414;12.768;2023-02-01T07:40:00;97260.0;;;
68446;BMP280;35789;48.414;12.768;2023-02-01T07:45:00;97250.0;;;
68446;BMP280;35789;48.414;12.768;2023-02-01T07:50:00;97250.0;;;
68446;BMP280;35789;48.414;12.768;2023-02-01T07:55:00;97250.0;;;
68446;BMP280;35789;48.414;12.768;2023-02-01T08:00:00;97240.0;;;
68446;BMP280;35789;48.414;12.768;2023-02-01T08:05:00;97250.0;;;
68446;BMP280;35789;48.414;12.768;2023-02-01T08:10:00;97260.0;;;
68446;BMP280;35789;48.414;12.768;2023-02-01T08:15:00;97270.0;;;
68446;BMP280;35789;48.414;12.768;2023-02-01T08:20:00;97280.0;;;
68446;BMP280;35789;48.414;12.768;2023-02-01T08:25:00;97270.0;;;
68446;BMP280;35789;48.414;12.768;2023-02-01T08:30:00;97270.0;;;
68446;BMP280;35789;48.414;12.768;2023-02-01T08:35:01;97260.0;;;
68446;BMP280;35789;48.414;12.768;2023-02-01T08:40:00;97270.0;;;
68446;BMP280;35789;48.414;12.768;2023-02-01T08:45:01;97280.0;;;
68446;BMP280;35789;48.414;12.768;2023-02-01T08:50:01;97290.0;;;
68446;BMP280;35789;48.414;12.768;2023-02-01T08:55:00;97270.0;;;
68446;BMP280;35789;48.414;12.768;2023-02-01T09:00:03;97280.0;;;
68446;BMP280;35789;48.414;12.768;2023-02-01T09:05:01;97280.0;;;
68446;BMP280;35789;48.414;12.768;2023-02-01T09:10:01;97290.0;;;
68446;BMP280;35789;48.414;12.768;2023-02-01T09:15:01;97270.0;;;
68446;BMP280;35789;48.414;12.768;2023-02-01T09:20:01;97280.0;;;
68446;BMP280;35789;48.414;12.768;2023-02-01T09:25:00;97280.0;;;
68446;BMP280;35789;48.414;12.768;2023-02-01T09:30:00;97280.0;;;
68446;BMP280;35789;48.414;12.768;2023-02-01T09:35:00;97280.0;;;
68446;BMP280;35789;48.414;12.768;2023-02-01T09:40:00;97280.0;;;
68446;BMP280;35789;48.414;12.768;2023-02-01T09:45:15;97280.0;;;
68446;BMP280;35789;48.414;12.768;2023-02-01T09:50:04;97280.0;;;
68446;BMP280;35789;48.414;12.768;2023-02-01T09:55:06;97290.0;;;
68446;BMP280;35789;48.414;12.768;2023-02-01T10:00:07;97290.0;;;
68446;BMP280;35789;48.414;12.768;2023-02-01T10:05:01;97280.0;;;
68446;BMP280;35789;48.414;12.768;2023-02-01T10:10:04;97300.0;;;
68446;BMP280;35789;48.414;12.768;2023-02-01T10:15:18;97300.0;;;
68446;BMP280;35789;48.414;12.768;2023-02-01T10:20:12;97310.0;;;
68446;BMP280;35789;48.414;12.768;2023-02-01T10:25:09;97300.0;;;
68446;BMP280;35789;48.414;12.768;2023-02-01T10:30:16;97310.0;;;
68446;BMP280;35789;48.414;12.768;2023-02-01T10:35:08;97310.0;;;
68446;BMP280;35789;48.414;12.768;2023-02-01T10:40:15;97320.0;;;
68446;BMP280;35789;48.414;12.768;2023-02-01T10:45:03;97310.0;;;
68446;BMP280;35789;48.414;12.768;2023-02-01T10:50:15;97310.0;;;
68446;BMP280;35789;48.414;12.768;2023-02-01T10:55:25;97310.0;;;
68446;BMP280;35789;48.414;12.768;2023-02-01T11:00:18;97310.0;;;
68446;BMP280;35789;48.414;12.768;2023-02-01T11:05:03;97310.0;;;
68446;BMP280;35789;48.414;12.768;2023-02-01T11:10:00;97320.0;;;
68446;BMP280;35789;48.414;12.768;2023-02-01T11:15:18;97330.0;;;
68446;BMP280;35789;48.414;12.768;2023-02-01T11:20:04;97310.0;;;
68446;BMP280;35789;48.414;12.768;2023-02-01T11:25:09;97310.0;;;
68446;BMP280;35789;48.414;12.768;2023-02-01T11:30:03;97310.0;;;
68446;BMP280;35789;48.414;12.768;2023-02-01T11:35:04;97310.0;;;
68446;BMP280;35789;48.414;12.768;2023-02-01T11:40:09;97310.0;;;
68446;BMP280;35789;48.414;12.768;2023-02-01T11:45:19;97320.0;;;
68446;BMP280;35789;48.414;12.768;2023-02-01T11:50:05;97320.0;;;
68446;BMP280;35789;48.414;12.768;2023-02-01T11:55:20;97310.0;;;
68446;BMP280;35789;48.414;12.768;2023-02-01T12:00:23;97310.0;;;
68446;BMP280;35789;48.414;12.768;2023-02-01T12:05:17;97300.0;;;
68446;BMP280;35789;48.414;12.768;2023-02-01T12:10:18;97290.0;;;
68446;BMP280;35789;48.414;12.768;2023-02-01T12:15:21;97280.0;;;
68446;BMP280;35789;48.414;12.768;2023-02-01T12:20:18;97270.0;;;
68446;BMP280;35789;48.414;12.768;2023-02-01T12:25:23;97260.0;;;
68446;BMP280;35789;48.414;12.768;2023-02-01T12:35:16;97260.0;;;
68446;BMP280;35789;48.414;12.768;2023-02-01T12:40:14;97240.0;;;
68446;BMP280;35789;48.414;12.768;2023-02-01T12:45:12;97240.0;;;
68446;BMP280;35789;48.414;12.768;2023-02-01T12:50:05;97250.0;;;
68446;BMP280;35789;48.414;12.768;2023-02-01T12:55:08;97250.0;;;
68446;BMP280;35789;48.414;12.768;2023-02-01T13:00:13;97250.0;;;
68446;BMP280;35789;48.414;12.768;2023-02-01T13:05:15;97260.0;;;
68446;BMP280;35789;48.414;12.768;2023-02-01T13:10:11;97270.0;;;
68446;BMP280;35789;48.414;12.768;2023-02-01T13:15:10;97260.0;;;
68446;BMP280;35789;48.414;12.768;2023-02-01T13:20:09;97260.0;;;
68446;BMP280;35789;48.414;12.768;2023-02-01T13:25:04;97250.0;;;
68446;BMP280;35789;48.414;12.768;2023-02-01T13:30:07;97240.0;;;
68446;BMP280;35789;48.414;12.768;2023-02-01T13:35:24;97240.0;;;
68446;BMP280;35789;48.414;12.768;2023-02-01T13:40:25;97250.0;;;
68446;BMP280;35789;48.414;12.768;2023-02-01T13:45:04;97250.0;;;
68446;BMP280;35789;48.414;12.768;2023-02-01T13:50:12;97250.0;;;
68446;BMP280;35789;48.414;12.768;2023-02-01T14:00:23;97260.0;;;
68446;BMP280;35789;48.414;12.768;2023-02-01T14:05:00;97270.0;;;
68446;BMP280;35789;48.414;12.768;2023-02-01T14:15:22;97240.0;;;
68446;BMP280;35789;48.414;12.768;2023-02-01T14:25:00;97240.0;;;
68446;BMP280;35789;48.414;12.768;2023-02-01T14:30:05;97240.0;;;
68446;BMP280;35789;48.414;12.768;2023-02-01T14:35:06;97240.0;;;
68446;BMP280;35789;48.414;12.768;2023-02-01T14:40:03;97250.0;;;
68446;BMP280;35789;48.414;12.768;2023-02-01T14:50:12;97250.0;;;
68446;BMP280;35789;48.414;12.768;2023-02-01T14:55:06;97250.0;;;
68446;BMP280;35789;48.414;12.768;2023-02-01T15:00:14;97250.0;;;
68446;BMP280;35789;48.414;12.768;2023-02-01T15:05:00;97250.0;;;
68446;BMP280;35789;48.414;12.768;2023-02-01T15:10:02;97250.0;;;
68446;BMP280;35789;48.414;12.768;2023-02-01T15:15:13;97250.0;;;
68446;BMP280;35789;48.414;12.768;2023-02-01T15:20:11;97250.0;;;
68446;BMP280;35789;48.414;12.768;2023-02-01T15:25:00;97240.0;;;
68446;BMP280;35789;48.414;12.768;2023-02-01T15:30:06;97250.0;;;
68446;BMP280;35789;48.414;12.768;2023-02-01T15:35:01;97250.0;;;
68446;BMP280;35789;48.414;12.768;2023-02-01T15:40:19;97250.0;;;
68446;BMP280;35789;48.414;12.768;2023-02-01T15:45:00;97240.0;;;
68446;BMP280;35789;48.414;12.768;2023-02-01T15:50:01;97260.0;;;
68446;BMP280;35789;48.414;12.768;2023-02-01T15:55:04;97260.0;;;
68446;BMP280;35789;48.414;12.768;2023-02-01T16:00:06;97260.0;;;
68446;BMP280;35789;48.414;12.768;2023-02-01T16:05:03;97260.0;;;
68446;BMP280;35789;48.414;12.768;2023-02-01T16:10:20;97260.0;;;
68446;BMP280;35789;48.414;12.768;2023-02-01T16:15:01;97260.0;;;
68446;BMP280;35789;48.414;12.768;2023-02-01T16:20:00;97270.0;;;
68446;BMP280;35789;48.414;12.768;2023-02-01T16:25:00;97270.0;;;
68446;BMP280;35789;48.414;12.768;2023-02-01T16:30:00;97270.0;;;
68446;BMP280;35789;48.414;12.768;2023-02-01T16:35:00;97280.0;;;
68446;BMP280;35789;48.414;12.768;2023-02-01T16:40:00;97280.0;;;
68446;BMP280;35789;48.414;12.768;2023-02-01T16:45:00;97290.0;;;
68446;BMP280;35789;48.414;12.768;2023-02-01T16:50:00;97280.0;;;
68446;BMP280;35789;48.414;12.768;2023-02-01T16:55:00;97270.0;;;
68446;BMP280;35789;48.414;12.768;2023-02-01T17:00:00;97270.0;;;
68446;BMP280;35789;48.414;12.768;2023-02-01T17:05:00;97260.0;;;
68446;BMP280;35789;48.414;12.768;2023-02-01T17:10:00;97260.0;;;
68446;BMP280;35789;48.414;12.768;2023-02-01T17:15:00;97260.0;;;
68446;BMP280;35789;48.414;12.768;2023-02-01T17:20:01;97250.0;;;
68446;BMP280;35789;48.414;12.768;2023-02-01T17:25:00;97260.0;;;
68446;BMP280;35789;48.414;12.768;2023-02-01T17:30:00;97260.0;;;
68446;BMP280;35789;48.414;12.768;2023-02-01T17:35:00;97260.0;;;
68446;BMP280;35789;48.414;12.768;2023-02-01T17:40:01;97250.0;;;
68446;BMP280;35789;48.414;12.768;2023-02-01T17:45:18;97260.0;;;
68446;BMP280;35789;48.414;12.768;2023-02-01T17:50:00;97260.0;;;
68446;BMP280;35789;48.414;12.768;2023-02-01T17:55:01;97270.0;;;
68446;BMP280;35789;48.414;12.768;2023-02-01T18:00:00;97280.0;;;
68446;BMP280;35789;48.414;12.768;2023-02-01T18:05:00;97270.0;;;
68446;BMP280;35789;48.414;12.768;2023-02-01T18:10:00;97280.0;;;
68446;BMP280;35789;48.414;12.768;2023-02-01T18:15:00;97270.0;;;
68446;BMP280;35789;48.414;12.768;2023-02-01T18:20:00;97270.0;;;
68446;BMP280;35789;48.414;12.768;2023-02-01T18:25:00;97270.0;;;
68446;BMP280;35789;48.414;12.768;2023-02-01T18:30:00;97260.0;;;
68446;BMP280;35789;48.414;12.768;2023-02-01T18:35:00;97260.0;;;
68446;BMP280;35789;48.414;12.768;2023-02-01T18:40:00;97260.0;;;
68446;BMP280;35789;48.414;12.768;2023-02-01T18:45:00;97260.0;;;
68446;BMP280;35789;48.414;12.768;2023-02-01T18:50:00;97240.0;;;
68446;BMP280;35789;48.414;12.768;2023-02-01T18:55:00;97250.0;;;
68446;BMP280;35789;48.414;12.768;2023-02-01T19:00:01;97260.0;;;
68446;BMP280;35789;48.414;12.768;2023-02-01T19:05:00;97260.0;;;
68446;BMP280;35789;48.414;12.768;2023-02-01T19:10:00;97260.0;;;
68446;BMP280;35789;48.414;12.768;2023-02-01T19:15:00;97260.0;;;
68446;BMP280;35789;48.414;12.768;2023-02-01T19:20:01;97260.0;;;
68446;BMP280;35789;48.414;12.768;2023-02-01T19:25:01;97250.0;;;
68446;BMP280;35789;48.414;12.768;2023-02-01T19:30:01;97250.0;;;
68446;BMP280;35789;48.414;12.768;2023-02-01T19:35:00;97240.0;;;
68446;BMP280;35789;48.414;12.768;2023-02-01T19:40:00;97240.0;;;
68446;BMP280;35789;48.414;12.768;2023-02-01T19:45:00;97230.0;;;
68446;BMP280;35789;48.414;12.768;2023-02-01T19:50:01;97240.0;;;
68446;BMP280;35789;48.414;12.768;2023-02-01T19:55:01;97220.0;;;
68446;BMP280;35789;48.414;12.768;2023-02-01T20:00:00;97220.0;;;
68446;BMP280;35789;48.414;12.768;2023-02-01T20:05:00;97230.0;;;
68446;BMP280;35789;48.414;12.768;2023-02-01T20:10:00;97230.0;;;
68446;BMP280;35789;48.414;12.768;2023-02-01T20:15:01;97220.0;;;
68446;BMP280;35789;48.414;12.768;2023-02-01T20:20:00;97220.0;;;
68446;BMP280;35789;48.414;12.768;2023-02-01T20:25:00;97220.0;;;
68446;BMP280;35789;48.414;12.768;2023-02-01T20:30:00;97220.0;;;
68446;BMP280;35789;48.414;12.768;2023-02-01T20:35:00;97210.0;;;
68446;BMP280;35789;48.414;12.768;2023-02-01T20:40:00;97220.0;;;
68446;BMP280;35789;48.414;12.768;2023-02-01T20:45:00;97210.0;;;
68446;BMP280;35789;48.414;12.768;2023-02-01T20:50:00;97220.0;;;
68446;BMP280;35789;48.414;12.768;2023-02-01T20:55:00;97220.0;;;
68446;BMP280;35789;48.414;12.768;2023-02-01T21:00:00;97200.0;;;
68446;BMP280;35789;48.414;12.768;2023-02-01T21:05:00;97200.0;;;
68446;BMP280;35789;48.414;12.768;2023-02-01T21:10:00;97190.0;;;
68446;BMP280;35789;48.414;12.768;2023-02-01T21:15:01;97200.0;;;
68446;BMP280;35789;48.414;12.768;2023-02-01T21:20:00;97190.0;;;
68446;BMP280;35789;48.414;12.768;2023-02-01T21:25:00;97190.0;;;
68446;BMP280;35789;48.414;12.768;2023-02-01T21:30:00;97170.0;;;
68446;BMP280;35789;48.414;12.768;2023-02-01T21:35:00;97200.0;;;
68446;BMP280;35789;48.414;12.768;2023-02-01T21:40:00;97190.0;;;
68446;BMP280;35789;48.414;12.768;2023-02-01T21:45:00;97220.0;;;
68446;BMP280;35789;48.414;12.768;2023-02-01T21:50:00;97210.0;;;
68446;BMP280;35789;48.414;12.768;2023-02-01T21:55:00;97200.0;;;
68446;BMP280;35789;48.414;12.768;2023-02-01T22:00:02;97200.0;;;
68446;BMP280;35789;48.414;12.768;2023-02-01T22:05:01;97210.0;;;
68446;BMP280;35789;48.414;12.768;2023-02-01T22:10:01;97230.0;;;
68446;BMP280;35789;48.414;12.768;2023-02-01T22:15:01;97240.0;;;
68446;BMP280;35789;48.414;12.768;2023-02-01T22:20:00;97230.0;;;
68446;BMP280;35789;48.414;12.768;2023-02-01T22:25:02;97240.0;;;
68446;BMP280;35789;48.414;12.768;2023-02-01T22:30:00;97240.0;;;
68446;BMP280;35789;48.414;12.768;2023-02-01T22:35:00;97220.0;;;
68446;BMP280;35789;48.414;12.768;2023-02-01T22:40:00;97210.0;;;
68446;BMP280;35789;48.414;12.768;2023-02-01T22:45:00;97230.0;;;
68446;BMP280;35789;48.414;12.768;2023-02-01T22:50:00;97220.0;;;
68446;BMP280;35789;48.414;12.768;2023-02-01T22:55:00;97220.0;;;
68446;BMP280;35789;48.414;12.768;2023-02-01T23:00:00;97210.0;;;
68446;BMP280;35789;48.414;12.768;2023-02-01T23:05:00;97210.0;;;
68446;BMP280;35789;48.414;12.768;2023-02-01T23:10:00;97190.0;;;
68446;BMP280;35789;48.414;12.768;2023-02-01T23:15:00;97200.0;;;
68446;BMP280;35789;48.414;12.768;2023-02-01T23:20:00;97200.0;;;
68446;BMP280;35789;48.414;12.768;2023-02-01T23:25:00;97200.0;;;
68446;BMP280;35789;48.414;12.768;2023-02-01T23:30:00;97200.0;;;
68446;BMP280;35789;48.414;12.768;2023-02-01T23:35:01;97210.0;;;
68446;BMP280;35789;48.414;12.768;2023-02-01T23:40:00;97190.0;;;
68446;BMP280;35789;48.414;12.768;2023-02-01T23:45:00;97200.0;;;
68446;BMP280;35789;48.414;12.768;2023-02-01T23:50:00;97190.0;;;
68446;BMP280;35789;48.414;12.768;2023-02-01T23:55:00;97180.0;;;
